Airfield :
LOGIN :

Register | Disclaimer

   EN    FR    IT 

 










Legend :    VFR   Marginal VFR   IFR   Intensive IFR   Very Intensive IFR
Visi :
Ceiling :
>= 8 km
>= 3000ft
5 to 8 km
1000 to 3000 ft
1500m to 5 km
500 to 1000 ft
800 to 1500m
200 to 500 ft
< 800m
< 200 ft
Symbols :   Thunderstorms  Fog  Heavy snow  Heavy precipitations  Wind > 20 kt
SIGMETs :     Misc.  Thunderstorms  Icing  Turbulence  Mountain Waves  Volcanic Ashes







- Airport Elevation : 909 ft
- IATA code : KSF


EDVK - Kassel Calden

CURRENT METAR :
  • 201720Z 11013KT 9000 -SN OVC010 01/M00 Q1011

EXPIRED METARs :
  • 201650Z 10014KT 9000 -SN OVC011 01/M00 Q1010
  • 201620Z 10011KT 8000 -SN BKN012 OVC015 00/M01 Q1010
  • 201550Z 09012KT 8000 -SN FEW007 BKN012 OVC016 00/M01 Q1010
  • 201520Z 09015KT 7000 -SN FEW007 BKN011 OVC020 00/M01 Q1010
  • 201450Z 09011KT 3000 -SN BR SCT006 OVC010 00/M01 Q1010

TAF TAF EDVK
Valid from the 20 at 18:00 until the 21 at 03:00 UTC


201700Z 2018/2103 09009KT 6000 BKN012
TEMPO 2018/2103 4000 BR BKN008
No reported NOTAMs for that airfield.



MET'MAP, your aeronautical weather chart ! - Copyright ORBIFLY December 2007 - Disclaimer

ORBIFLY MET'MAP TEAM :

Programming & Development : Alexandra Zaïnal
Concept & Development : Baudouin d'Aumeries
Co-Development & Prog : Marc-Olivier Méhu
Technical & hardware support : Manuel Goepfert

Contact : metmap@orbifly.com




SOURCES & CREDITS :

   NOAA